Time;durP1;ratioP1;P1;durP2;ratioP2;P2;SDS_P1;SDS_P2;PMS_P1;PMS_P2;Temp;Humidity;BMP_temperature;BMP_pressure;BME280_temperature;BME280_humidity;BME280_pressure;Samples;Min_cycle;Max_cycle;Signal;HPM_P1;HPM_P2
2022/09/07 00:00:55;;;;;;;4.70;2.30;;;;;;;;;;111150;1247;34488;-36
2022/09/07 00:03:26;;;;;;;6.20;2.10;;;;;;;;;;111164;1248;33113;-37
2022/09/07 00:05:57;;;;;;;4.70;1.80;;;;;;;;;;111178;1248;35009;-36
2022/09/07 00:08:28;;;;;;;4.40;2.00;;;;;;;;;;111149;1241;34549;-36
2022/09/07 00:11:00;;;;;;;4.30;1.70;;;;;;;;;;111181;1247;33637;-36
2022/09/07 00:13:33;;;;;;;4.20;2.00;;;;;;;;;;111019;1248;33306;-37
2022/09/07 00:16:11;;;;;;;3.60;1.70;;;;;;;;;;111191;1248;33208;-36
2022/09/07 00:18:43;;;;;;;4.30;2.00;;;;;;;;;;111146;1241;33123;-36
2022/09/07 00:21:15;;;;;;;4.10;1.80;;;;;;;;;;111152;1241;34572;-36
2022/09/07 00:23:47;;;;;;;4.50;2.00;;;;;;;;;;111159;1248;33519;-36
2022/09/07 00:26:21;;;;;;;3.80;1.60;;;;;;;;;;111171;1248;33644;-36
2022/09/07 00:28:52;;;;;;;4.20;1.90;;;;;;;;;;111160;1239;32973;-36
2022/09/07 00:31:25;;;;;;;3.80;1.70;;;;;;;;;;111138;1239;33591;-36
2022/09/07 00:33:57;;;;;;;4.30;2.30;;;;;;;;;;111132;1245;34375;-37
2022/09/07 00:36:29;;;;;;;4.30;1.80;;;;;;;;;;111142;1248;34348;-36
2022/09/07 00:39:00;;;;;;;4.30;1.90;;;;;;;;;;111163;1248;32326;-37
2022/09/07 00:41:31;;;;;;;4.20;2.30;;;;;;;;;;111137;1247;33776;-37
2022/09/07 00:44:33;;;;;;;4.50;2.10;;;;;;;;;;111165;1248;34460;-37
2022/09/07 00:47:03;;;;;;;5.10;2.00;;;;;;;;;;111156;1248;34345;-37
2022/09/07 00:49:38;;;;;;;5.90;2.00;;;;;;;;;;111131;1245;33015;-36
2022/09/07 00:52:10;;;;;;;4.50;1.80;;;;;;;;;;111166;1246;32673;-37
2022/09/07 00:54:44;;;;;;;4.60;2.00;;;;;;;;;;111169;1248;32720;-37
2022/09/07 00:57:15;;;;;;;5.80;2.10;;;;;;;;;;111138;1248;33941;-37
2022/09/07 00:59:51;;;;;;;3.60;1.70;;;;;;;;;;111115;1239;32895;-36
2022/09/07 01:02:22;;;;;;;5.10;1.90;;;;;;;;;;111167;1241;33501;-37
2022/09/07 01:05:00;;;;;;;5.00;2.10;;;;;;;;;;111169;1245;33016;-36
2022/09/07 01:07:31;;;;;;;5.90;2.00;;;;;;;;;;111144;1242;33224;-37
2022/09/07 01:10:02;;;;;;;5.90;1.90;;;;;;;;;;111186;1241;33015;-37
2022/09/07 01:12:37;;;;;;;4.00;1.90;;;;;;;;;;111154;1241;32618;-37
2022/09/07 01:15:10;;;;;;;4.70;1.90;;;;;;;;;;111124;1238;32955;-37
2022/09/07 01:17:59;;;;;;;4.80;2.00;;;;;;;;;;111150;1240;33014;-37
2022/09/07 01:20:59;;;;;;;4.20;2.00;;;;;;;;;;111177;1248;33278;-36
2022/09/07 01:23:49;;;;;;;4.20;1.90;;;;;;;;;;111154;1244;34070;-37
2022/09/07 01:26:58;;;;;;;4.50;2.10;;;;;;;;;;111153;1241;33073;-37
2022/09/07 01:29:33;;;;;;;3.90;1.70;;;;;;;;;;111165;1248;33625;-37
2022/09/07 01:32:10;;;;;;;4.00;1.90;;;;;;;;;;111130;1248;32970;-36
2022/09/07 01:34:42;;;;;;;4.90;2.10;;;;;;;;;;111164;1248;32937;-37
2022/09/07 01:37:21;;;;;;;4.90;2.10;;;;;;;;;;111153;1241;32847;-36
2022/09/07 01:39:56;;;;;;;4.90;2.30;;;;;;;;;;111144;1241;34169;-37
2022/09/07 01:42:30;;;;;;;3.70;1.80;;;;;;;;;;111110;1248;33402;-36
2022/09/07 01:45:02;;;;;;;4.10;1.90;;;;;;;;;;111174;1239;32921;-37
2022/09/07 01:47:37;;;;;;;4.20;2.00;;;;;;;;;;111162;1245;33256;-37
2022/09/07 01:50:10;;;;;;;5.10;2.20;;;;;;;;;;111148;1241;32763;-37
2022/09/07 01:52:47;;;;;;;4.30;2.30;;;;;;;;;;111012;1241;32995;-36
2022/09/07 01:55:21;;;;;;;3.60;1.90;;;;;;;;;;111132;1245;33088;-37
2022/09/07 01:57:58;;;;;;;4.00;1.90;;;;;;;;;;111133;1239;33429;-37
2022/09/07 02:00:29;;;;;;;4.30;1.90;;;;;;;;;;111152;1241;33390;-37
2022/09/07 02:03:06;;;;;;;4.60;2.20;;;;;;;;;;111107;1240;33146;-37
2022/09/07 02:05:42;;;;;;;3.50;1.70;;;;;;;;;;111126;1248;32913;-37
2022/09/07 02:08:17;;;;;;;4.40;1.80;;;;;;;;;;111136;1245;32883;-37
2022/09/07 02:10:54;;;;;;;4.30;2.00;;;;;;;;;;111138;1241;33158;-37
2022/09/07 02:13:30;;;;;;;4.40;1.70;;;;;;;;;;111115;1241;33256;-37
2022/09/07 02:16:03;;;;;;;4.90;1.80;;;;;;;;;;111125;1242;33096;-37
2022/09/07 02:18:33;;;;;;;;;;;;;;;;;;111156;1241;32880;-37
2022/09/07 02:21:05;;;;;;;3.80;1.90;;;;;;;;;;111127;1245;33419;-37
2022/09/07 02:23:38;;;;;;;4.50;2.10;;;;;;;;;;111108;1248;33676;-37
2022/09/07 02:26:14;;;;;;;4.10;1.90;;;;;;;;;;111119;1241;33458;-37
2022/09/07 02:28:45;;;;;;;4.70;1.90;;;;;;;;;;111139;1247;32926;-37
2022/09/07 02:31:18;;;;;;;4.40;1.90;;;;;;;;;;111130;1241;33291;-37
2022/09/07 02:33:50;;;;;;;4.10;1.90;;;;;;;;;;111132;1248;33304;-37
2022/09/07 02:36:25;;;;;;;4.00;2.00;;;;;;;;;;111142;1248;33314;-37
2022/09/07 02:38:56;;;;;;;4.20;1.90;;;;;;;;;;111152;1241;32953;-37
2022/09/07 02:41:33;;;;;;;5.70;2.10;;;;;;;;;;111121;1241;33223;-37
2022/09/07 02:44:09;;;;;;;4.10;1.90;;;;;;;;;;111166;1239;33179;-37
2022/09/07 02:47:00;;;;;;;4.10;2.00;;;;;;;;;;111159;1238;34096;-37
2022/09/07 02:49:50;;;;;;;4.50;2.00;;;;;;;;;;111129;1248;33577;-37
2022/09/07 02:52:29;;;;;;;4.20;2.10;;;;;;;;;;111131;1248;33513;-37
2022/09/07 02:55:07;;;;;;;4.20;1.60;;;;;;;;;;111123;1238;33215;-36
2022/09/07 02:57:47;;;;;;;3.90;1.90;;;;;;;;;;111126;1241;32918;-37
2022/09/07 03:00:24;;;;;;;3.70;1.80;;;;;;;;;;111131;1240;35084;-37
2022/09/07 03:03:06;;;;;;;4.30;1.70;;;;;;;;;;111108;1248;33836;-37
2022/09/07 03:05:42;;;;;;;3.70;1.70;;;;;;;;;;111152;1248;32963;-37
2022/09/07 03:08:16;;;;;;;5.30;2.00;;;;;;;;;;111151;1239;33406;-37
2022/09/07 03:10:47;;;;;;;4.10;2.20;;;;;;;;;;111143;1241;33249;-37
2022/09/07 03:13:28;;;;;;;4.30;2.00;;;;;;;;;;111139;1241;33629;-37
2022/09/07 03:15:59;;;;;;;4.10;2.00;;;;;;;;;;111101;1248;33398;-37
2022/09/07 03:18:30;;;;;;;4.20;1.80;;;;;;;;;;111131;1248;33822;-37
2022/09/07 03:21:00;;;;;;;4.70;2.30;;;;;;;;;;111129;1244;32903;-37
2022/09/07 03:23:31;;;;;;;4.50;2.20;;;;;;;;;;111115;1248;32941;-37
2022/09/07 03:26:02;;;;;;;4.30;2.00;;;;;;;;;;111160;1248;33512;-37
2022/09/07 03:28:32;;;;;;;4.10;1.90;;;;;;;;;;111100;1248;33564;-37
2022/09/07 03:31:03;;;;;;;4.50;1.80;;;;;;;;;;111127;1248;33108;-37
2022/09/07 03:33:34;;;;;;;3.90;1.80;;;;;;;;;;111157;1241;33437;-37
2022/09/07 03:36:06;;;;;;;3.90;1.90;;;;;;;;;;111130;1244;33432;-37
2022/09/07 03:38:37;;;;;;;3.70;1.60;;;;;;;;;;111141;1244;32910;-37
2022/09/07 03:41:08;;;;;;;3.50;1.80;;;;;;;;;;111127;1241;33185;-37
2022/09/07 03:43:39;;;;;;;3.50;1.90;;;;;;;;;;111120;1248;32963;-37
2022/09/07 03:46:10;;;;;;;3.80;2.10;;;;;;;;;;111129;1248;33525;-37
2022/09/07 03:48:40;;;;;;;4.00;1.90;;;;;;;;;;111133;1238;33209;-37
2022/09/07 03:51:12;;;;;;;4.00;1.90;;;;;;;;;;111149;1248;33223;-37
2022/09/07 03:53:45;;;;;;;3.80;1.70;;;;;;;;;;111125;1248;33345;-37
2022/09/07 03:56:17;;;;;;;3.20;1.70;;;;;;;;;;111128;1241;33269;-37
2022/09/07 03:58:49;;;;;;;3.90;1.60;;;;;;;;;;111175;1241;32919;-37
2022/09/07 04:01:23;;;;;;;3.80;1.70;;;;;;;;;;111160;1241;33224;-37
2022/09/07 04:03:56;;;;;;;3.60;1.70;;;;;;;;;;111142;1247;33365;-37
2022/09/07 04:06:27;;;;;;;3.60;1.90;;;;;;;;;;111132;1248;32919;-37
2022/09/07 04:09:01;;;;;;;4.20;1.90;;;;;;;;;;111131;1242;32903;-37
2022/09/07 04:11:32;;;;;;;4.00;1.80;;;;;;;;;;111168;1238;33188;-37
2022/09/07 04:14:03;;;;;;;3.90;1.90;;;;;;;;;;111141;1244;33275;-37
2022/09/07 04:16:34;;;;;;;3.40;1.60;;;;;;;;;;111142;1238;33465;-37
2022/09/07 04:19:04;;;;;;;4.70;2.40;;;;;;;;;;111130;1247;32819;-37
2022/09/07 04:21:35;;;;;;;4.00;1.90;;;;;;;;;;111039;1244;32864;-37
2022/09/07 04:24:06;;;;;;;4.00;1.80;;;;;;;;;;111153;1246;33275;-37
2022/09/07 04:26:37;;;;;;;6.90;2.10;;;;;;;;;;111171;1248;33658;-37
2022/09/07 04:29:08;;;;;;;4.20;1.90;;;;;;;;;;111131;1247;34187;-37
2022/09/07 04:31:39;;;;;;;4.80;1.90;;;;;;;;;;111134;1247;33616;-37
2022/09/07 04:34:11;;;;;;;4.00;1.90;;;;;;;;;;111146;1248;33509;-37
2022/09/07 04:36:45;;;;;;;3.90;2.00;;;;;;;;;;111181;1238;33099;-37
2022/09/07 04:39:15;;;;;;;6.80;1.70;;;;;;;;;;111177;1241;33117;-37
2022/09/07 04:41:49;;;;;;;4.30;2.20;;;;;;;;;;111181;1247;33305;-37
2022/09/07 04:44:18;;;;;;;;;;;;;;;;;;111184;1241;32995;-37
2022/09/07 04:46:48;;;;;;;4.70;1.90;;;;;;;;;;111151;1240;32827;-37
2022/09/07 04:49:20;;;;;;;3.90;1.70;;;;;;;;;;111165;1241;33345;-37
2022/09/07 04:51:50;;;;;;;5.50;2.40;;;;;;;;;;111163;1244;33611;-37
2022/09/07 04:54:22;;;;;;;5.40;1.80;;;;;;;;;;111127;1248;33348;-37
2022/09/07 04:56:53;;;;;;;4.60;2.40;;;;;;;;;;111154;1238;32768;-36
2022/09/07 04:59:23;;;;;;;4.40;1.90;;;;;;;;;;111131;1238;32608;-36
2022/09/07 05:01:54;;;;;;;4.70;1.70;;;;;;;;;;111165;1238;32880;-37
2022/09/07 05:04:25;;;;;;;4.40;2.00;;;;;;;;;;111148;1238;33227;-37
2022/09/07 05:06:56;;;;;;;4.90;2.30;;;;;;;;;;111158;1238;32801;-37
2022/09/07 05:09:26;;;;;;;5.10;2.30;;;;;;;;;;111175;1247;33224;-37
2022/09/07 05:11:57;;;;;;;5.00;2.00;;;;;;;;;;111159;1247;33327;-37
2022/09/07 05:14:30;;;;;;;4.90;2.20;;;;;;;;;;111164;1241;33138;-37
2022/09/07 05:17:00;;;;;;;4.10;1.80;;;;;;;;;;111162;1245;33593;-37
2022/09/07 05:19:31;;;;;;;4.20;1.90;;;;;;;;;;111155;1238;32955;-37
2022/09/07 05:22:01;;;;;;;4.60;2.00;;;;;;;;;;111136;1248;33296;-37
2022/09/07 05:24:36;;;;;;;4.40;1.70;;;;;;;;;;111138;1241;33632;-37
2022/09/07 05:27:07;;;;;;;4.10;1.90;;;;;;;;;;111167;1248;33400;-37
2022/09/07 05:29:37;;;;;;;5.30;2.00;;;;;;;;;;111168;1244;34855;-37
2022/09/07 05:32:08;;;;;;;5.40;1.70;;;;;;;;;;111176;1241;33223;-36
2022/09/07 05:34:39;;;;;;;5.20;1.80;;;;;;;;;;111161;1238;32886;-37
2022/09/07 05:37:09;;;;;;;4.70;1.90;;;;;;;;;;111155;1244;33295;-37
2022/09/07 05:39:40;;;;;;;4.50;2.00;;;;;;;;;;111151;1247;33351;-37
2022/09/07 05:42:10;;;;;;;5.10;2.10;;;;;;;;;;111154;1242;33451;-37
2022/09/07 05:44:41;;;;;;;5.00;1.90;;;;;;;;;;111146;1241;33495;-37
2022/09/07 05:47:11;;;;;;;4.60;1.90;;;;;;;;;;111165;1241;33760;-37
2022/09/07 05:49:42;;;;;;;4.90;1.90;;;;;;;;;;111169;1238;33224;-37
2022/09/07 05:52:13;;;;;;;5.30;1.90;;;;;;;;;;111166;1242;33387;-36
2022/09/07 05:54:43;;;;;;;4.50;2.00;;;;;;;;;;111164;1247;33237;-36
2022/09/07 05:57:15;;;;;;;4.40;2.00;;;;;;;;;;111150;1247;34810;-37
2022/09/07 05:59:49;;;;;;;4.30;2.20;;;;;;;;;;111167;1247;34841;-36
2022/09/07 06:02:20;;;;;;;4.70;1.80;;;;;;;;;;111166;1238;33214;-37
2022/09/07 06:04:51;;;;;;;4.50;1.90;;;;;;;;;;111167;1241;32911;-37
2022/09/07 06:07:21;;;;;;;3.80;1.80;;;;;;;;;;111181;1241;33304;-35
2022/09/07 06:09:52;;;;;;;3.90;1.90;;;;;;;;;;111175;1245;32810;-35
2022/09/07 06:12:24;;;;;;;4.00;1.80;;;;;;;;;;111175;1247;33683;-36
2022/09/07 06:14:54;;;;;;;4.30;1.90;;;;;;;;;;111157;1244;32845;-37
2022/09/07 06:17:28;;;;;;;3.90;2.00;;;;;;;;;;111147;1241;33204;-36
2022/09/07 06:19:59;;;;;;;3.60;1.80;;;;;;;;;;111185;1243;32928;-36
2022/09/07 06:22:30;;;;;;;3.30;1.70;;;;;;;;;;111179;1238;32951;-37
2022/09/07 06:25:00;;;;;;;4.20;1.80;;;;;;;;;;110763;1248;542825;-37
2022/09/07 06:27:31;;;;;;;4.20;1.70;;;;;;;;;;111152;1247;33236;-36
2022/09/07 06:30:02;;;;;;;7.70;2.20;;;;;;;;;;111196;1241;33234;-37
2022/09/07 06:32:35;;;;;;;5.40;2.00;;;;;;;;;;111159;1245;33215;-37
2022/09/07 06:35:08;;;;;;;4.70;1.60;;;;;;;;;;111187;1239;33491;-37
2022/09/07 06:37:39;;;;;;;4.60;2.00;;;;;;;;;;111171;1238;33179;-36
2022/09/07 06:40:14;;;;;;;5.90;2.00;;;;;;;;;;111199;1238;33310;-36
2022/09/07 06:42:45;;;;;;;4.50;1.90;;;;;;;;;;111160;1241;33240;-36
2022/09/07 06:45:15;;;;;;;3.90;1.70;;;;;;;;;;111177;1243;33314;-36
2022/09/07 06:47:46;;;;;;;4.50;1.80;;;;;;;;;;111149;1238;34049;-36
2022/09/07 06:50:17;;;;;;;7.90;2.40;;;;;;;;;;111198;1248;33477;-36
2022/09/07 06:52:47;;;;;;;5.80;2.60;;;;;;;;;;111181;1239;34958;-36
2022/09/07 06:55:18;;;;;;;7.10;2.60;;;;;;;;;;111025;1245;33558;-36
2022/09/07 06:57:51;;;;;;;5.00;2.40;;;;;;;;;;111188;1241;33673;-36
2022/09/07 07:00:22;;;;;;;5.70;2.40;;;;;;;;;;111187;1247;33666;-36
2022/09/07 07:02:52;;;;;;;5.20;2.00;;;;;;;;;;111176;1238;33060;-36
2022/09/07 07:05:23;;;;;;;5.70;2.40;;;;;;;;;;111156;1247;32883;-36
2022/09/07 07:07:55;;;;;;;5.10;2.00;;;;;;;;;;111185;1238;34892;-36
2022/09/07 07:10:26;;;;;;;5.60;2.50;;;;;;;;;;111219;1239;33488;-36
2022/09/07 07:12:57;;;;;;;6.30;2.00;;;;;;;;;;111182;1248;35148;-36
2022/09/07 07:15:30;;;;;;;6.00;2.40;;;;;;;;;;111155;1247;34879;-36
2022/09/07 07:18:00;;;;;;;8.20;2.20;;;;;;;;;;111182;1241;33281;-36
2022/09/07 07:20:31;;;;;;;5.50;2.00;;;;;;;;;;111178;1247;33077;-36
2022/09/07 07:23:02;;;;;;;6.00;2.20;;;;;;;;;;111154;1241;33345;-36
2022/09/07 07:25:34;;;;;;;5.50;2.10;;;;;;;;;;111190;1247;33863;-34
2022/09/07 07:28:07;;;;;;;6.90;2.30;;;;;;;;;;110970;1242;33621;-35
2022/09/07 07:30:38;;;;;;;5.50;2.00;;;;;;;;;;111140;1241;33012;-34
2022/09/07 07:33:16;;;;;;;6.40;2.40;;;;;;;;;;111136;1241;33595;-34
2022/09/07 07:35:46;;;;;;;5.70;2.10;;;;;;;;;;111102;1247;34354;-34
2022/09/07 07:38:17;;;;;;;8.40;2.20;;;;;;;;;;110945;1241;33725;-35
2022/09/07 07:40:53;;;;;;;5.50;2.20;;;;;;;;;;110991;1241;33407;-35
2022/09/07 07:43:26;;;;;;;5.90;2.20;;;;;;;;;;111009;1241;33784;-34
2022/09/07 07:46:00;;;;;;;4.90;2.00;;;;;;;;;;111160;1243;33429;-35
2022/09/07 07:48:32;;;;;;;6.20;1.90;;;;;;;;;;111201;1242;33431;-35
2022/09/07 07:51:05;;;;;;;6.40;2.00;;;;;;;;;;111158;1239;33489;-35
2022/09/07 07:53:38;;;;;;;7.00;2.20;;;;;;;;;;111186;1247;33586;-35
2022/09/07 07:56:10;;;;;;;5.60;2.30;;;;;;;;;;111150;1240;33612;-36
2022/09/07 07:58:44;;;;;;;5.70;1.80;;;;;;;;;;111151;1238;33243;-36
2022/09/07 08:01:18;;;;;;;5.40;1.80;;;;;;;;;;111178;1238;33265;-42
2022/09/07 08:03:49;;;;;;;4.60;2.00;;;;;;;;;;111218;1247;32831;-37
2022/09/07 08:06:21;;;;;;;4.40;1.70;;;;;;;;;;111179;1247;32903;-40
2022/09/07 08:08:52;;;;;;;5.00;1.80;;;;;;;;;;111230;1247;33099;-40
2022/09/07 08:11:23;;;;;;;5.40;2.10;;;;;;;;;;111166;1241;32871;-40
2022/09/07 08:13:58;;;;;;;4.40;1.80;;;;;;;;;;111188;1239;33458;-39
2022/09/07 08:16:33;;;;;;;5.10;1.60;;;;;;;;;;111214;1247;34150;-37
2022/09/07 08:19:05;;;;;;;4.70;1.70;;;;;;;;;;111232;1244;32701;-39
2022/09/07 08:21:36;;;;;;;5.80;1.70;;;;;;;;;;111212;1247;33359;-40
2022/09/07 08:24:08;;;;;;;4.60;1.70;;;;;;;;;;111206;1248;33316;-38
2022/09/07 08:26:38;;;;;;;4.90;1.70;;;;;;;;;;111180;1247;34748;-38
2022/09/07 08:29:09;;;;;;;3.80;1.60;;;;;;;;;;111181;1241;32986;-38
2022/09/07 08:31:40;;;;;;;5.10;1.70;;;;;;;;;;111177;1241;33519;-40
2022/09/07 08:34:16;;;;;;;4.20;1.40;;;;;;;;;;111203;1244;32042;-37
2022/09/07 08:36:48;;;;;;;4.60;1.80;;;;;;;;;;111188;1239;33252;-39
2022/09/07 08:39:19;;;;;;;6.00;3.00;;;;;;;;;;111228;1241;32284;-37
2022/09/07 08:42:06;;;;;;;4.80;1.30;;;;;;;;;;111223;1248;33312;-39
2022/09/07 08:44:42;;;;;;;4.30;1.60;;;;;;;;;;111201;1241;35135;-40
2022/09/07 08:47:21;;;;;;;4.30;1.70;;;;;;;;;;111193;1241;33345;-40
2022/09/07 08:49:55;;;;;;;4.40;1.60;;;;;;;;;;111189;1241;33371;-41
2022/09/07 08:52:30;;;;;;;4.10;1.30;;;;;;;;;;111245;1247;33192;-40
2022/09/07 08:55:05;;;;;;;4.10;1.30;;;;;;;;;;111215;1247;32899;-37
2022/09/07 08:57:39;;;;;;;3.70;1.50;;;;;;;;;;111211;1238;32794;-37
2022/09/07 09:00:13;;;;;;;3.80;1.60;;;;;;;;;;111180;1239;32976;-37
2022/09/07 09:02:48;;;;;;;4.00;1.50;;;;;;;;;;111222;1238;33555;-37
2022/09/07 09:05:36;;;;;;;4.30;1.40;;;;;;;;;;111196;1239;31613;-40
2022/09/07 09:08:23;;;;;;;4.40;1.40;;;;;;;;;;111190;1239;34966;-38
2022/09/07 09:11:01;;;;;;;5.00;1.50;;;;;;;;;;111198;1247;33471;-40
2022/09/07 09:13:47;;;;;;;3.80;1.20;;;;;;;;;;111197;1242;33522;-41
2022/09/07 09:16:21;;;;;;;3.30;1.20;;;;;;;;;;111219;1241;33218;-39
2022/09/07 09:19:05;;;;;;;3.00;1.20;;;;;;;;;;111198;1241;32775;-37
2022/09/07 09:21:37;;;;;;;4.50;1.40;;;;;;;;;;111217;1247;33471;-37
2022/09/07 09:24:15;;;;;;;3.10;1.10;;;;;;;;;;111199;1239;32473;-40
2022/09/07 09:26:50;;;;;;;3.20;1.20;;;;;;;;;;111209;1241;32950;-40
2022/09/07 09:29:22;;;;;;;2.90;1.00;;;;;;;;;;111205;1239;32874;-41
2022/09/07 09:31:53;;;;;;;3.00;1.10;;;;;;;;;;111197;1241;33221;-40
2022/09/07 09:34:24;;;;;;;3.30;1.20;;;;;;;;;;111214;1247;33291;-40
2022/09/07 09:36:56;;;;;;;3.00;1.00;;;;;;;;;;111209;1241;33297;-39
2022/09/07 09:39:32;;;;;;;2.50;1.00;;;;;;;;;;111022;1242;33192;-40
2022/09/07 09:42:23;;;;;;;3.30;1.10;;;;;;;;;;111219;1239;33456;-40
2022/09/07 09:44:54;;;;;;;3.10;1.00;;;;;;;;;;111194;1239;33149;-40
2022/09/07 09:47:32;;;;;;;2.70;0.80;;;;;;;;;;111248;1247;33240;-40
2022/09/07 09:50:06;;;;;;;3.30;1.10;;;;;;;;;;111202;1247;34598;-40
2022/09/07 09:52:37;;;;;;;3.80;1.10;;;;;;;;;;111216;1239;32852;-40
2022/09/07 09:55:17;;;;;;;2.80;1.00;;;;;;;;;;111213;1243;33068;-40
2022/09/07 09:57:53;;;;;;;3.40;1.00;;;;;;;;;;111194;1247;33209;-39
2022/09/07 10:00:26;;;;;;;2.60;0.80;;;;;;;;;;111210;1247;33389;-40
2022/09/07 10:03:18;;;;;;;3.60;1.20;;;;;;;;;;111197;1239;32819;-40
2022/09/07 10:05:49;;;;;;;2.60;1.10;;;;;;;;;;111222;1241;32956;-39
2022/09/07 10:08:23;;;;;;;2.20;0.80;;;;;;;;;;111208;1239;33218;-41
2022/09/07 10:10:59;;;;;;;3.70;1.10;;;;;;;;;;111035;1241;32836;-40
2022/09/07 10:13:34;;;;;;;2.20;0.90;;;;;;;;;;111265;1247;33623;-40
2022/09/07 10:16:07;;;;;;;3.30;1.00;;;;;;;;;;111213;1238;32992;-40
2022/09/07 10:18:40;;;;;;;3.90;1.00;;;;;;;;;;111015;1241;33160;-40
2022/09/07 10:21:26;;;;;;;2.40;0.80;;;;;;;;;;111216;1245;34779;-41
2022/09/07 10:24:00;;;;;;;2.00;0.80;;;;;;;;;;111229;1241;33204;-39
2022/09/07 10:26:31;;;;;;;;;;;;;;;;;;111262;1247;33360;-40
2022/09/07 10:29:14;;;;;;;2.80;0.70;;;;;;;;;;111262;1247;32486;-39
2022/09/07 10:31:55;;;;;;;3.40;1.00;;;;;;;;;;111242;1238;33334;-39
2022/09/07 10:34:31;;;;;;;1.90;0.70;;;;;;;;;;111217;1247;32667;-41
2022/09/07 10:37:07;;;;;;;2.10;0.80;;;;;;;;;;111169;1247;33363;-39
2022/09/07 10:39:41;;;;;;;3.10;0.90;;;;;;;;;;111230;1247;33346;-40
2022/09/07 10:42:27;;;;;;;2.00;0.80;;;;;;;;;;111244;1247;33263;-39
2022/09/07 10:45:05;;;;;;;2.70;1.00;;;;;;;;;;111210;1247;32855;-39
2022/09/07 10:47:45;;;;;;;2.30;1.00;;;;;;;;;;111213;1243;34879;-40
2022/09/07 10:50:23;;;;;;;2.30;0.70;;;;;;;;;;111255;1239;32768;-41
2022/09/07 10:53:05;;;;;;;2.50;0.90;;;;;;;;;;111242;1247;33915;-40
2022/09/07 10:55:40;;;;;;;2.30;0.90;;;;;;;;;;111220;1245;33077;-39
2022/09/07 10:58:23;;;;;;;2.70;1.20;;;;;;;;;;111206;1241;32833;-39
2022/09/07 11:01:12;;;;;;;2.80;1.30;;;;;;;;;;111218;1242;32775;-40
2022/09/07 11:03:55;;;;;;;3.00;1.00;;;;;;;;;;111210;1239;32781;-39
2022/09/07 11:06:29;;;;;;;2.80;1.00;;;;;;;;;;111235;1239;34522;-40
2022/09/07 11:09:14;;;;;;;2.90;0.90;;;;;;;;;;111220;1247;32686;-40
2022/09/07 11:11:48;;;;;;;3.00;1.10;;;;;;;;;;111232;1247;33278;-39
2022/09/07 11:14:21;;;;;;;2.20;0.90;;;;;;;;;;111240;1241;32778;-39
2022/09/07 11:16:55;;;;;;;2.40;1.00;;;;;;;;;;111208;1242;33616;-40
2022/09/07 11:19:30;;;;;;;3.80;1.00;;;;;;;;;;111234;1247;35063;-40
2022/09/07 11:22:09;;;;;;;2.10;0.80;;;;;;;;;;111205;1241;32809;-41
2022/09/07 11:24:43;;;;;;;2.20;0.90;;;;;;;;;;111248;1243;33478;-40
2022/09/07 11:27:18;;;;;;;2.40;0.90;;;;;;;;;;111242;1247;32890;-40
2022/09/07 11:29:52;;;;;;;2.90;0.90;;;;;;;;;;111226;1239;33387;-39
2022/09/07 11:32:26;;;;;;;3.00;1.00;;;;;;;;;;111234;1247;33242;-39
2022/09/07 11:35:00;;;;;;;3.30;1.00;;;;;;;;;;111227;1242;33176;-40
2022/09/07 11:37:37;;;;;;;2.00;0.80;;;;;;;;;;111222;1238;33411;-39
2022/09/07 11:40:13;;;;;;;2.80;1.00;;;;;;;;;;111234;1239;33074;-39
2022/09/07 11:42:48;;;;;;;2.10;1.00;;;;;;;;;;111213;1244;33208;-41
2022/09/07 11:45:23;;;;;;;3.30;0.80;;;;;;;;;;111233;1247;33966;-42
2022/09/07 11:47:58;;;;;;;2.00;0.90;;;;;;;;;;111231;1247;33103;-40
2022/09/07 11:50:29;;;;;;;3.10;0.90;;;;;;;;;;111257;1239;34644;-39
2022/09/07 11:53:03;;;;;;;2.80;0.80;;;;;;;;;;111239;1239;33351;-39
2022/09/07 11:55:37;;;;;;;2.90;1.10;;;;;;;;;;111229;1239;33221;-39
2022/09/07 11:58:30;;;;;;;2.40;0.90;;;;;;;;;;111248;1241;33033;-39
2022/09/07 12:01:10;;;;;;;2.90;1.00;;;;;;;;;;111153;1247;33234;-40
2022/09/07 12:03:56;;;;;;;3.50;1.00;;;;;;;;;;111228;1240;33347;-40
2022/09/07 12:07:02;;;;;;;3.00;0.90;;;;;;;;;;111212;1241;34662;-40
2022/09/07 12:09:43;;;;;;;2.70;1.00;;;;;;;;;;111194;1242;32881;-39
2022/09/07 12:12:27;;;;;;;3.20;0.90;;;;;;;;;;111223;1239;32791;-39
2022/09/07 12:15:11;;;;;;;3.20;1.00;;;;;;;;;;111220;1238;32956;-39
2022/09/07 12:17:44;;;;;;;;;;;;;;;;;;111065;1248;34526;-39
2022/09/07 12:20:20;;;;;;;2.90;1.10;;;;;;;;;;111229;1244;33230;-40
2022/09/07 12:23:06;;;;;;;3.80;1.10;;;;;;;;;;111251;1239;33126;-39
2022/09/07 12:25:37;;;;;;;4.40;1.30;;;;;;;;;;111241;1247;33115;-40
2022/09/07 12:28:13;;;;;;;3.80;1.40;;;;;;;;;;111249;1242;33648;-39
2022/09/07 12:31:03;;;;;;;6.30;1.30;;;;;;;;;;111226;1238;33083;-40
2022/09/07 12:33:38;;;;;;;4.40;1.20;;;;;;;;;;111233;1239;33202;-40
2022/09/07 12:36:42;;;;;;;4.20;1.10;;;;;;;;;;111232;1247;32743;-41
2022/09/07 12:39:24;;;;;;;5.40;1.40;;;;;;;;;;111244;1247;32778;-40
2022/09/07 12:42:14;;;;;;;5.80;1.80;;;;;;;;;;111080;1248;33285;-40
2022/09/07 12:44:45;;;;;;;5.70;1.40;;;;;;;;;;111058;1242;33139;-39
2022/09/07 12:47:29;;;;;;;6.20;1.60;;;;;;;;;;111065;1241;32736;-39
2022/09/07 12:50:26;;;;;;;5.70;1.70;;;;;;;;;;111054;1247;32897;-39
2022/09/07 12:53:22;;;;;;;3.50;1.30;;;;;;;;;;111049;1242;33265;-39
2022/09/07 12:56:13;;;;;;;5.50;1.40;;;;;;;;;;111054;1248;33240;-39
2022/09/07 12:58:50;;;;;;;5.30;1.40;;;;;;;;;;111085;1241;33542;-40
2022/09/07 13:01:35;;;;;;;6.00;1.40;;;;;;;;;;111098;1241;32787;-39
2022/09/07 13:04:25;;;;;;;4.90;1.50;;;;;;;;;;110849;1242;33279;-39
2022/09/07 13:07:30;;;;;;;4.30;1.20;;;;;;;;;;111031;1241;33256;-39
2022/09/07 13:10:03;;;;;;;5.50;1.50;;;;;;;;;;110441;1255;32994;-38
2022/09/07 13:12:37;;;;;;;6.80;1.50;;;;;;;;;;110481;1247;33202;-43
2022/09/07 13:15:40;;;;;;;5.20;1.30;;;;;;;;;;110816;1248;32789;-40
2022/09/07 13:18:33;;;;;;;4.30;1.00;;;;;;;;;;111201;1244;33238;-45
2022/09/07 13:21:33;;;;;;;4.20;1.20;;;;;;;;;;111044;1248;34991;-37
2022/09/07 13:24:43;;;;;;;4.10;1.10;;;;;;;;;;111049;1247;33250;-38
2022/09/07 13:27:43;;;;;;;4.70;1.20;;;;;;;;;;111043;1241;33141;-38
2022/09/07 13:30:34;;;;;;;5.20;1.40;;;;;;;;;;111231;1242;33583;-38
2022/09/07 13:33:51;;;;;;;4.40;1.30;;;;;;;;;;111229;1241;32801;-39
2022/09/07 13:36:25;;;;;;;3.50;1.30;;;;;;;;;;111216;1238;34148;-41
2022/09/07 13:38:56;;;;;;;4.70;1.20;;;;;;;;;;111232;1247;33541;-40
2022/09/07 13:41:31;;;;;;;3.70;1.10;;;;;;;;;;111230;1241;32854;-36
2022/09/07 13:44:05;;;;;;;3.40;1.10;;;;;;;;;;111238;1247;33335;-47
2022/09/07 13:46:50;;;;;;;3.70;1.20;;;;;;;;;;111155;1241;33190;-42
2022/09/07 13:49:32;;;;;;;4.50;1.40;;;;;;;;;;111233;1245;32327;-47
2022/09/07 13:52:07;;;;;;;4.60;1.10;;;;;;;;;;111113;1247;33214;-40
2022/09/07 13:54:57;;;;;;;5.00;2.10;;;;;;;;;;111213;1244;32801;-37
2022/09/07 13:57:32;;;;;;;3.90;1.30;;;;;;;;;;111208;1242;33050;-44
2022/09/07 14:00:05;;;;;;;5.40;1.60;;;;;;;;;;111267;1244;32998;-51
2022/09/07 14:02:38;;;;;;;3.80;1.10;;;;;;;;;;111064;1247;33411;-37
2022/09/07 14:05:12;;;;;;;3.10;1.10;;;;;;;;;;111189;1247;33298;-36
2022/09/07 14:07:47;;;;;;;4.20;1.00;;;;;;;;;;111268;1238;33684;-41
2022/09/07 14:10:20;;;;;;;2.70;1.00;;;;;;;;;;111224;1238;32868;-39
2022/09/07 14:12:52;;;;;;;4.40;1.10;;;;;;;;;;111188;1241;33240;-39
2022/09/07 14:15:32;;;;;;;5.40;1.00;;;;;;;;;;111213;1247;33225;-41
2022/09/07 14:18:11;;;;;;;3.30;1.00;;;;;;;;;;111191;1247;33318;-47
2022/09/07 14:20:47;;;;;;;2.80;1.00;;;;;;;;;;111142;1247;32907;-43
2022/09/07 14:23:28;;;;;;;3.20;1.00;;;;;;;;;;111212;1238;33323;-46
2022/09/07 14:26:14;;;;;;;4.30;1.10;;;;;;;;;;110854;1241;468490;-40
2022/09/07 14:28:45;;;;;;;3.00;1.00;;;;;;;;;;111199;1239;32694;-40
2022/09/07 14:31:17;;;;;;;3.70;1.10;;;;;;;;;;111208;1247;33333;-40
2022/09/07 14:33:51;;;;;;;3.50;1.10;;;;;;;;;;111211;1239;33324;-40
2022/09/07 14:36:29;;;;;;;3.00;1.00;;;;;;;;;;111223;1247;33308;-42
2022/09/07 14:39:02;;;;;;;3.50;1.00;;;;;;;;;;111211;1239;33195;-40
2022/09/07 14:41:37;;;;;;;3.70;1.10;;;;;;;;;;111212;1247;32954;-40
2022/09/07 14:44:26;;;;;;;3.30;0.90;;;;;;;;;;111199;1239;32925;-41
2022/09/07 14:46:57;;;;;;;3.50;1.00;;;;;;;;;;111119;1247;33216;-40
2022/09/07 14:49:28;;;;;;;3.50;1.10;;;;;;;;;;111189;1241;33346;-40
2022/09/07 14:52:00;;;;;;;3.00;0.80;;;;;;;;;;111084;1241;33465;-40
2022/09/07 14:54:34;;;;;;;4.20;1.20;;;;;;;;;;111150;1247;32878;-40
2022/09/07 14:57:29;;;;;;;2.10;0.90;;;;;;;;;;111133;1239;33127;-40
2022/09/07 15:00:14;;;;;;;5.10;1.40;;;;;;;;;;111175;1238;32824;-42
2022/09/07 15:02:45;;;;;;;2.60;0.90;;;;;;;;;;111190;1241;34815;-42
2022/09/07 15:05:23;;;;;;;3.20;1.00;;;;;;;;;;111217;1247;33189;-41
2022/09/07 15:08:03;;;;;;;3.50;1.00;;;;;;;;;;111148;1244;33486;-40
2022/09/07 15:10:39;;;;;;;2.40;0.80;;;;;;;;;;111172;1241;33180;-39
2022/09/07 15:13:31;;;;;;;3.40;1.00;;;;;;;;;;111205;1238;32850;-42
2022/09/07 15:16:04;;;;;;;3.70;1.10;;;;;;;;;;111248;1239;33230;-42
2022/09/07 15:19:01;;;;;;;3.50;1.20;;;;;;;;;;111219;1238;33031;-42
2022/09/07 15:21:34;;;;;;;2.70;1.10;;;;;;;;;;110853;1248;33349;-40